Historyczne dane pomiarowe

Dodano dane terminowe – wersja testowa.

Dane z okresu 1951-2019

Wersja bazy: 1.34 [2019-03-16, lista zmian], aktualizacja planowana na 2019-04-15

Dane meteo z obszaru Polski uzyskane na podstawie danych udostępnionych przez Instytut Meteorologii i Gospodarki Wodnej – Państwowy Instytut Badawczy.

 

Wybierz Datę:    

       

TemperaturaWilgotnośćZachmurzenieWiatrCiśnienieWidzialnośćZjawiska
 Data    tng td wb rh cc ccl cl cm ch dir g1 g2 mslp ppp      
1999-06-17 00:00:00 16.0--- 15.2 15.595wxwxwx2wx--1019.7 997.6 0.0---wx
1999-06-17 01:00:00 15.6--- 14.8 15.195wxwxwx1wx--1019.6 997.5----wx
1999-06-17 02:00:00 15.2--- 14.4 14.795wxwxwx1wx--1019.3 997.1----wx
1999-06-17 03:00:00 14.8--- 14.0 14.395wxwxwx1wx--1018.9 996.7----wx
1999-06-17 04:00:00 16.5--- 15.4 15.893wxwxwx1wx--1018.7 996.6----wx
1999-06-17 05:00:00 18.1--- 16.2 16.989wxwxwx2wx--1018.2 996.3----wx
1999-06-17 06:00:00 19.7--- 17.5 18.387wxwxwx1wx--1017.8 996.0 0.0---wx
1999-06-17 07:00:00 21.5--- 17.9 19.180wxwxwx1wx--1017.4 995.7----wx
1999-06-17 08:00:00 22.3--- 18.4 19.779wxwxwx1wx--1017.0 995.4----wx
1999-06-17 09:00:00 23.5--- 18.4 20.173wxwxwx2wx--1016.8 995.3----wx
1999-06-17 10:00:00 23.8--- 17.2 19.567wxwxwx2wx--1016.3 994.8----wx
1999-06-17 11:00:00 23.7--- 18.0 19.970wxwxwxwx3wx--1015.9 994.4----wx
1999-06-17 12:00:00 23.6--- 17.9 19.870wxwxwxwx1wx--1015.1 993.6 0.0---wx
1999-06-17 13:00:00 23.5--- 18.1 19.972wxwxwxwx3wx--1014.6 993.1----wx
1999-06-17 14:00:00 23.2--- 18.2 19.974wxwxwxwx1wx--1014.4 992.9----wx
1999-06-17 15:00:00 19.4--- 17.7 18.390wxwxwx1wx--1014.4 992.7----wxw1
1999-06-17 16:00:00 19.3--- 18.2 18.694wxwxwx1wx--1013.6 991.9----wxw1
1999-06-17 17:00:00 19.1--- 18.5 18.796wxwxwx2wx--1013.4 991.7----wxw1
1999-06-17 18:00:00 19.1--- 18.5 18.796wxwxwx1wx--1013.2 991.5 3.0---wxw1
1999-06-17 19:00:00 18.9--- 18.0 18.394wxwxwx2wx--1013.3 991.5----wx
1999-06-17 20:00:00 17.8--- 16.5 17.092wxwxwx5wx--1012.9 991.1----wx
1999-06-17 21:00:00 17.9--- 17.3 17.596wxwxwx3wx--1012.7 990.9----wx
1999-06-17 22:00:00 17.5--- 16.9 17.196wxwxwx2wx--1012.5 990.7----wx
1999-06-17 23:00:00 16.5--- 15.9 16.196wxwxwx3wx--1012.5 990.6----wxw1

 

Źródłem pochodzenia danych jest Instytut Meteorologii i Gospodarki Wodnej – Państwowy Instytut Badawczy. Dane Instytutu Meteorologii i Gospodarki Wodnej – Państwowego Instytutu Badawczego zostały przetworzone.

Dane źródłowe można odnaleźć na stronie https://dane.imgw.pl